PWSweather.com
Personal Weather Stations
Station Observations
CALONGE
CalongeES 17251

CalongeES 17251

Lat: 41.85972222, Lon: 3.077777778

Elevation: 16

Station Type: Oregon WMR928N

www.calonge-meteoweb.com

High Low Average
Temperature 61.9°F16.6°C 48.9°F9.4°C 53.5°F11.9°C
Dew Point 37.8°F3.2°C 18.7°F-7.4°C 26.9°F-2.8°C
Winds 14.9 mph 24.0 kmh Calm Calm 6.0 mph W9.7 kmh W
Wind Gusts 30.5 mph49.1 kmh -- 12.0 mph19.3 kmh
Humidity 64% 24% 37%
Pressure 29.83 in1010.2 mb 29.77 in1008.1 mb -
Precipitation 0.00 in0.0 mm - -
Hour Temp Dew Point Humidity Winds Wind Gusts Pressure Precip Precip Rate Daily Precip Total
12:00 AM 50.9°F10.5°C 26.8°F-2.9°C 39% 9.4 mph NNW15.1 kmh NNW 20.2 mph32.5 kmh 29.83 in1010.2 mb 0.00 in0.0 mm 0.00 in0.0 mm 0.00 in0.0 mm
12:15 AM 50.5°F10.3°C 26.5°F-3.1°C 39% 4.7 mph N7.6 kmh N 17.3 mph27.8 kmh 29.83 in1010.2 mb 0.00 in0.0 mm 0.00 in0.0 mm 0.00 in0.0 mm
12:30 AM 50.7°F10.4°C 26.0°F-3.3°C 38% 14.9 mph N24.0 kmh N 21.4 mph34.4 kmh 29.80 in1009.1 mb 0.00 in0.0 mm 0.00 in0.0 mm 0.00 in0.0 mm
12:45 AM 51.1°F10.6°C 25.7°F-3.5°C 37% 10.8 mph NW17.4 kmh NW 30.5 mph49.1 kmh 29.83 in1010.2 mb 0.00 in0.0 mm 0.00 in0.0 mm 0.00 in0.0 mm
01:00 AM 51.3°F10.7°C 25.2°F-3.8°C 36% 8.2 mph NNW13.2 kmh NNW 21.4 mph34.4 kmh 29.80 in1009.1 mb 0.00 in0.0 mm 0.00 in0.0 mm 0.00 in0.0 mm
01:15 AM 51.3°F10.7°C 25.2°F-3.8°C 36% 12.0 mph NNW19.3 kmh NNW 22.0 mph35.4 kmh 29.83 in1010.2 mb 0.00 in0.0 mm 0.00 in0.0 mm 0.00 in0.0 mm
01:30 AM 51.3°F10.7°C 23.8°F-4.6°C 34% 10.8 mph N17.4 kmh N 19.6 mph31.5 kmh 29.83 in1010.2 mb 0.00 in0.0 mm 0.00 in0.0 mm 0.00 in0.0 mm
01:45 AM 51.1°F10.6°C 24.3°F-4.3°C 35% 7.0 mph N11.3 kmh N 13.2 mph21.2 kmh 29.83 in1010.2 mb 0.00 in0.0 mm 0.00 in0.0 mm 0.00 in0.0 mm
02:00 AM 51.3°F10.7°C 23.8°F-4.6°C 34% 7.0 mph NNW11.3 kmh NNW 16.7 mph26.9 kmh 29.83 in1010.2 mb 0.00 in0.0 mm 0.00 in0.0 mm 0.00 in0.0 mm
02:15 AM 51.6°F10.9°C 21.2°F-6.0°C 30% 14.9 mph N24.0 kmh N 20.8 mph33.5 kmh 29.83 in1010.2 mb 0.00 in0.0 mm 0.00 in0.0 mm 0.00 in0.0 mm
02:30 AM 51.6°F10.9°C 21.9°F-5.6°C 31% 7.0 mph N11.3 kmh N 22.9 mph36.9 kmh 29.83 in1010.2 mb 0.00 in0.0 mm 0.00 in0.0 mm 0.00 in0.0 mm
02:45 AM 51.1°F10.6°C 22.2°F-5.4°C 32% 7.6 mph NW12.2 kmh NW 19.6 mph31.5 kmh 29.83 in1010.2 mb 0.00 in0.0 mm 0.00 in0.0 mm 0.00 in0.0 mm
03:00 AM 50.9°F10.5°C 22.1°F-5.5°C 32% 11.4 mph NNW18.3 kmh NNW 16.7 mph26.9 kmh 29.83 in1010.2 mb 0.00 in0.0 mm 0.00 in0.0 mm 0.00 in0.0 mm
03:15 AM 50.7°F10.4°C 21.9°F-5.6°C 32% 10.8 mph NW17.4 kmh NW 20.2 mph32.5 kmh 29.83 in1010.2 mb 0.00 in0.0 mm 0.00 in0.0 mm 0.00 in0.0 mm
03:30 AM 50.7°F10.4°C 21.1°F-6.1°C 31% 7.0 mph NNW11.3 kmh NNW 19.0 mph30.6 kmh 29.83 in1010.2 mb 0.00 in0.0 mm 0.00 in0.0 mm 0.00 in0.0 mm
03:45 AM 50.9°F10.5°C 21.3°F-5.9°C 31% 10.5 mph NNW16.9 kmh NNW 16.1 mph25.9 kmh 29.83 in1010.2 mb 0.00 in0.0 mm 0.00 in0.0 mm 0.00 in0.0 mm
04:00 AM 50.9°F10.5°C 20.5°F-6.4°C 30% 10.5 mph NNW16.9 kmh NNW 17.3 mph27.8 kmh 29.83 in1010.2 mb 0.00 in0.0 mm 0.00 in0.0 mm 0.00 in0.0 mm
04:15 AM 50.9°F10.5°C 21.3°F-5.9°C 31% 8.8 mph NW14.2 kmh NW 17.3 mph27.8 kmh 29.83 in1010.2 mb 0.00 in0.0 mm 0.00 in0.0 mm 0.00 in0.0 mm
04:30 AM 50.9°F10.5°C 21.3°F-5.9°C 31% 7.0 mph NW11.3 kmh NW 17.3 mph27.8 kmh 29.83 in1010.2 mb 0.00 in0.0 mm 0.00 in0.0 mm 0.00 in0.0 mm
04:45 AM 50.9°F10.5°C 22.1°F-5.5°C 32% 6.4 mph NW10.3 kmh NW 12.6 mph20.3 kmh 29.80 in1009.1 mb 0.00 in0.0 mm 0.00 in0.0 mm 0.00 in0.0 mm
05:00 AM 50.9°F10.5°C 21.3°F-5.9°C 31% 5.9 mph N9.5 kmh N 11.4 mph18.3 kmh 29.83 in1010.2 mb 0.00 in0.0 mm 0.00 in0.0 mm 0.00 in0.0 mm
05:15 AM 50.5°F10.3°C 21.0°F-6.1°C 31% 5.3 mph NNW8.5 kmh NNW 13.2 mph21.2 kmh 29.83 in1010.2 mb 0.00 in0.0 mm 0.00 in0.0 mm 0.00 in0.0 mm
05:30 AM 50.5°F10.3°C 21.0°F-6.1°C 31% 8.8 mph NW14.2 kmh NW 20.8 mph33.5 kmh 29.83 in1010.2 mb 0.00 in0.0 mm 0.00 in0.0 mm 0.00 in0.0 mm
05:45 AM 51.1°F10.6°C 19.9°F-6.7°C 29% 11.4 mph NNW18.3 kmh NNW 19.6 mph31.5 kmh 29.83 in1010.2 mb 0.00 in0.0 mm 0.00 in0.0 mm 0.00 in0.0 mm
06:00 AM 51.6°F10.9°C 18.7°F-7.4°C 27% 10.5 mph N16.9 kmh N 14.9 mph24.0 kmh 29.80 in1009.1 mb 0.00 in0.0 mm 0.00 in0.0 mm 0.00 in0.0 mm
06:15 AM 51.3°F10.7°C 20.0°F-6.7°C 29% 9.4 mph NNW15.1 kmh NNW 13.2 mph21.2 kmh 29.80 in1009.1 mb 0.00 in0.0 mm 0.00 in0.0 mm 0.00 in0.0 mm
06:30 AM 50.7°F10.4°C 20.4°F-6.4°C 30% 9.4 mph NW15.1 kmh NW 16.1 mph25.9 kmh 29.83 in1010.2 mb 0.00 in0.0 mm 0.00 in0.0 mm 0.00 in0.0 mm
06:45 AM 50.4°F10.2°C 20.8°F-6.2°C 31% 8.2 mph NNW13.2 kmh NNW 16.1 mph25.9 kmh 29.80 in1009.1 mb 0.00 in0.0 mm 0.00 in0.0 mm 0.00 in0.0 mm
07:00 AM 50.7°F10.4°C 21.1°F-6.1°C 31% 6.4 mph NNW10.3 kmh NNW 14.9 mph24.0 kmh 29.80 in1009.1 mb 0.00 in0.0 mm 0.00 in0.0 mm 0.00 in0.0 mm
07:15 AM 50.9°F10.5°C 21.3°F-5.9°C 31% 8.8 mph NW14.2 kmh NW 16.7 mph26.9 kmh 29.80 in1009.1 mb 0.00 in0.0 mm 0.00 in0.0 mm 0.00 in0.0 mm
07:30 AM 50.5°F10.3°C 21.7°F-5.7°C 32% 9.4 mph NW15.1 kmh NW 14.4 mph23.2 kmh 29.83 in1010.2 mb 0.00 in0.0 mm 0.00 in0.0 mm 0.00 in0.0 mm
07:45 AM 50.5°F10.3°C 21.0°F-6.1°C 31% 10.5 mph NW16.9 kmh NW 17.9 mph28.8 kmh 29.83 in1010.2 mb 0.00 in0.0 mm 0.00 in0.0 mm 0.00 in0.0 mm
08:00 AM 50.4°F10.2°C 21.6°F-5.8°C 32% 7.0 mph NNW11.3 kmh NNW 19.0 mph30.6 kmh 29.83 in1010.2 mb 0.00 in0.0 mm 0.00 in0.0 mm 0.00 in0.0 mm
08:15 AM 50.4°F10.2°C 22.3°F-5.4°C 33% 8.2 mph NNW13.2 kmh NNW 13.8 mph22.2 kmh 29.83 in1010.2 mb 0.00 in0.0 mm 0.00 in0.0 mm 0.00 in0.0 mm
08:30 AM 50.7°F10.4°C 21.9°F-5.6°C 32% 7.6 mph NNW12.2 kmh NNW 13.8 mph22.2 kmh 29.83 in1010.2 mb 0.00 in0.0 mm 0.00 in0.0 mm 0.00 in0.0 mm
08:45 AM 51.6°F10.9°C 22.7°F-5.2°C 32% 8.8 mph NNW14.2 kmh NNW 13.2 mph21.2 kmh 29.83 in1010.2 mb 0.00 in0.0 mm 0.00 in0.0 mm 0.00 in0.0 mm
09:00 AM 52.3°F11.3°C 22.6°F-5.2°C 31% 5.9 mph NW9.5 kmh NW 12.0 mph19.3 kmh 29.83 in1010.2 mb 0.00 in0.0 mm 0.00 in0.0 mm 0.00 in0.0 mm
09:15 AM 52.7°F11.5°C 22.9°F-5.1°C 31% 5.9 mph NNW9.5 kmh NNW 14.4 mph23.2 kmh 29.83 in1010.2 mb 0.00 in0.0 mm 0.00 in0.0 mm 0.00 in0.0 mm
09:30 AM 52.7°F11.5°C 23.6°F-4.7°C 32% 5.3 mph NW8.5 kmh NW 13.2 mph21.2 kmh 29.83 in1010.2 mb 0.00 in0.0 mm 0.00 in0.0 mm 0.00 in0.0 mm
09:45 AM 53.1°F11.7°C 23.2°F-4.9°C 31% 7.0 mph NNW11.3 kmh NNW 14.4 mph23.2 kmh 29.83 in1010.2 mb 0.00 in0.0 mm 0.00 in0.0 mm 0.00 in0.0 mm
10:00 AM 54.1°F12.3°C 24.1°F-4.4°C 31% 6.4 mph NW10.3 kmh NW 13.2 mph21.2 kmh 29.83 in1010.2 mb 0.00 in0.0 mm 0.00 in0.0 mm 0.00 in0.0 mm
10:15 AM 54.9°F12.7°C 26.3°F-3.2°C 33% 4.7 mph NW7.6 kmh NW 15.5 mph24.9 kmh 29.83 in1010.2 mb 0.00 in0.0 mm 0.00 in0.0 mm 0.00 in0.0 mm
10:30 AM 54.7°F12.6°C 24.6°F-4.1°C 31% 8.2 mph NW13.2 kmh NW 13.8 mph22.2 kmh 29.83 in1010.2 mb 0.00 in0.0 mm 0.00 in0.0 mm 0.00 in0.0 mm
10:45 AM 55.2°F12.9°C 23.5°F-4.7°C 29% 10.0 mph NNW16.1 kmh NNW 17.9 mph28.8 kmh 29.83 in1010.2 mb 0.00 in0.0 mm 0.00 in0.0 mm 0.00 in0.0 mm
11:00 AM 55.4°F13.0°C 23.6°F-4.7°C 29% 5.9 mph NW9.5 kmh NW 11.4 mph18.3 kmh 29.83 in1010.2 mb 0.00 in0.0 mm 0.00 in0.0 mm 0.00 in0.0 mm
11:15 AM 55.4°F13.0°C 26.0°F-3.3°C 32% 6.4 mph NW10.3 kmh NW 14.4 mph23.2 kmh 29.83 in1010.2 mb 0.00 in0.0 mm 0.00 in0.0 mm 0.00 in0.0 mm
11:30 AM 56.1°F13.4°C 25.9°F-3.4°C 31% 8.2 mph NW13.2 kmh NW 13.8 mph22.2 kmh 29.83 in1010.2 mb 0.00 in0.0 mm 0.00 in0.0 mm 0.00 in0.0 mm
11:45 AM 56.8°F13.8°C 26.5°F-3.1°C 31% 5.9 mph NNW9.5 kmh NNW 13.8 mph22.2 kmh 29.83 in1010.2 mb 0.00 in0.0 mm 0.00 in0.0 mm 0.00 in0.0 mm
12:00 PM 57.9°F14.4°C 25.8°F-3.4°C 29% 7.6 mph NW12.2 kmh NW 13.2 mph21.2 kmh 29.83 in1010.2 mb 0.00 in0.0 mm 0.00 in0.0 mm 0.00 in0.0 mm
12:15 PM 58.8°F14.9°C 24.9°F-3.9°C 27% 8.2 mph NNW13.2 kmh NNW 13.2 mph21.2 kmh 29.80 in1009.1 mb 0.00 in0.0 mm 0.00 in0.0 mm 0.00 in0.0 mm
12:30 PM 59.7°F15.4°C 23.8°F-4.6°C 25% 5.9 mph N9.5 kmh N 13.2 mph21.2 kmh 29.80 in1009.1 mb 0.00 in0.0 mm 0.00 in0.0 mm 0.00 in0.0 mm
12:45 PM 59.9°F15.5°C 24.9°F-3.9°C 26% 2.9 mph NW4.7 kmh NW 10.5 mph16.9 kmh 29.80 in1009.1 mb 0.00 in0.0 mm 0.00 in0.0 mm 0.00 in0.0 mm
01:00 PM 60.1°F15.6°C 24.1°F-4.4°C 25% 5.9 mph NNW9.5 kmh NNW 11.4 mph18.3 kmh 29.80 in1009.1 mb 0.00 in0.0 mm 0.00 in0.0 mm 0.00 in0.0 mm
01:15 PM 60.3°F15.7°C 24.3°F-4.3°C 25% 4.7 mph N7.6 kmh N 13.2 mph21.2 kmh 29.77 in1008.1 mb 0.00 in0.0 mm 0.00 in0.0 mm 0.00 in0.0 mm
01:30 PM 60.8°F16.0°C 23.7°F-4.6°C 24% 7.6 mph NW12.2 kmh NW 13.8 mph22.2 kmh 29.77 in1008.1 mb 0.00 in0.0 mm 0.00 in0.0 mm 0.00 in0.0 mm
01:45 PM 61.2°F16.2°C 25.0°F-3.9°C 25% Calm Calm 11.4 mph18.3 kmh 29.77 in1008.1 mb 0.00 in0.0 mm 0.00 in0.0 mm 0.00 in0.0 mm
02:00 PM 61.5°F16.4°C 24.3°F-4.3°C 24% 5.9 mph NNW9.5 kmh NNW 12.0 mph19.3 kmh 29.77 in1008.1 mb 0.00 in0.0 mm 0.00 in0.0 mm 0.00 in0.0 mm
02:15 PM 61.7°F16.5°C 25.5°F-3.6°C 25% 5.3 mph N8.5 kmh N 10.0 mph16.1 kmh 29.77 in1008.1 mb 0.00 in0.0 mm 0.00 in0.0 mm 0.00 in0.0 mm
02:30 PM 61.3°F16.3°C 26.1°F-3.3°C 26% 3.5 mph N5.6 kmh N 7.0 mph11.3 kmh 29.77 in1008.1 mb 0.00 in0.0 mm 0.00 in0.0 mm 0.00 in0.0 mm
02:45 PM 61.5°F16.4°C 26.3°F-3.2°C 26% Calm Calm 10.8 mph17.4 kmh 29.77 in1008.1 mb 0.00 in0.0 mm 0.00 in0.0 mm 0.00 in0.0 mm
03:00 PM 61.7°F16.5°C 26.4°F-3.1°C 26% Calm Calm 8.8 mph14.2 kmh 29.77 in1008.1 mb 0.00 in0.0 mm 0.00 in0.0 mm 0.00 in0.0 mm
03:15 PM 61.9°F16.6°C 25.6°F-3.6°C 25% 3.5 mph N5.6 kmh N 8.2 mph13.2 kmh 29.77 in1008.1 mb 0.00 in0.0 mm 0.00 in0.0 mm 0.00 in0.0 mm
03:30 PM 61.7°F16.5°C 25.5°F-3.6°C 25% 5.3 mph N8.5 kmh N 10.0 mph16.1 kmh 29.77 in1008.1 mb 0.00 in0.0 mm 0.00 in0.0 mm 0.00 in0.0 mm
03:45 PM 61.5°F16.4°C 25.3°F-3.7°C 25% 4.1 mph N6.6 kmh N 10.5 mph16.9 kmh 29.77 in1008.1 mb 0.00 in0.0 mm 0.00 in0.0 mm 0.00 in0.0 mm
04:00 PM 61.3°F16.3°C 25.2°F-3.8°C 25% Calm Calm 10.5 mph16.9 kmh 29.77 in1008.1 mb 0.00 in0.0 mm 0.00 in0.0 mm 0.00 in0.0 mm
04:15 PM 61.2°F16.2°C 27.8°F-2.3°C 28% Calm Calm 6.4 mph10.3 kmh 29.77 in1008.1 mb 0.00 in0.0 mm 0.00 in0.0 mm 0.00 in0.0 mm
04:30 PM 60.8°F16.0°C 31.5°F-0.3°C 33% Calm Calm 7.6 mph12.2 kmh 29.77 in1008.1 mb 0.00 in0.0 mm 0.00 in0.0 mm 0.00 in0.0 mm
04:45 PM 60.1°F15.6°C 31.6°F-0.2°C 34% Calm Calm -- 29.77 in1008.1 mb 0.00 in0.0 mm 0.00 in0.0 mm 0.00 in0.0 mm
05:00 PM 58.8°F14.9°C 32.6°F0.3°C 37% Calm Calm -- 29.77 in1008.1 mb 0.00 in0.0 mm 0.00 in0.0 mm 0.00 in0.0 mm
05:15 PM 55.9°F13.3°C 33.2°F0.7°C 42% Calm Calm -- 29.77 in1008.1 mb 0.00 in0.0 mm 0.00 in0.0 mm 0.00 in0.0 mm
05:30 PM 54.3°F12.4°C 33.4°F0.8°C 45% Calm Calm -- 29.80 in1009.1 mb 0.00 in0.0 mm 0.00 in0.0 mm 0.00 in0.0 mm
05:45 PM 52.9°F11.6°C 33.2°F0.7°C 47% 4.7 mph NW7.6 kmh NW 6.4 mph10.3 kmh 29.80 in1009.1 mb 0.00 in0.0 mm 0.00 in0.0 mm 0.00 in0.0 mm
06:00 PM 51.3°F10.7°C 33.7°F0.9°C 51% 4.7 mph W7.6 kmh W 8.2 mph13.2 kmh 29.80 in1009.1 mb 0.00 in0.0 mm 0.00 in0.0 mm 0.00 in0.0 mm
06:15 PM 50.5°F10.3°C 33.6°F0.9°C 52% Calm Calm 5.3 mph8.5 kmh 29.80 in1009.1 mb 0.00 in0.0 mm 0.00 in0.0 mm 0.00 in0.0 mm
06:30 PM 50.4°F10.2°C 33.4°F0.8°C 52% Calm Calm 6.4 mph10.3 kmh 29.80 in1009.1 mb 0.00 in0.0 mm 0.00 in0.0 mm 0.00 in0.0 mm
06:45 PM 50.2°F10.1°C 35.1°F1.7°C 56% 5.3 mph W8.5 kmh W 6.4 mph10.3 kmh 29.80 in1009.1 mb 0.00 in0.0 mm 0.00 in0.0 mm 0.00 in0.0 mm
07:00 PM 50.0°F10.0°C 35.4°F1.9°C 57% 4.1 mph W6.6 kmh W 6.4 mph10.3 kmh 29.80 in1009.1 mb 0.00 in0.0 mm 0.00 in0.0 mm 0.00 in0.0 mm
07:15 PM 50.0°F10.0°C 35.4°F1.9°C 57% Calm Calm -- 29.80 in1009.1 mb 0.00 in0.0 mm 0.00 in0.0 mm 0.00 in0.0 mm
07:30 PM 50.4°F10.2°C 34.8°F1.6°C 55% Calm Calm 8.2 mph13.2 kmh 29.80 in1009.1 mb 0.00 in0.0 mm 0.00 in0.0 mm 0.00 in0.0 mm
07:45 PM 50.2°F10.1°C 35.1°F1.7°C 56% 2.9 mph WNW4.7 kmh WNW 6.4 mph10.3 kmh 29.80 in1009.1 mb 0.00 in0.0 mm 0.00 in0.0 mm 0.00 in0.0 mm
08:00 PM 50.4°F10.2°C 35.7°F2.1°C 57% Calm Calm 7.0 mph11.3 kmh 29.80 in1009.1 mb 0.00 in0.0 mm 0.00 in0.0 mm 0.00 in0.0 mm
08:15 PM 50.2°F10.1°C 36.4°F2.4°C 59% Calm Calm -- 29.80 in1009.1 mb 0.00 in0.0 mm 0.00 in0.0 mm 0.00 in0.0 mm
08:30 PM 50.4°F10.2°C 36.1°F2.3°C 58% Calm Calm -- 29.80 in1009.1 mb 0.00 in0.0 mm 0.00 in0.0 mm 0.00 in0.0 mm
08:45 PM 50.2°F10.1°C 36.0°F2.2°C 58% Calm Calm -- 29.80 in1009.1 mb 0.00 in0.0 mm 0.00 in0.0 mm 0.00 in0.0 mm
09:00 PM 50.5°F10.3°C 37.6°F3.1°C 61% 5.9 mph W9.5 kmh W 7.0 mph11.3 kmh 29.80 in1009.1 mb 0.00 in0.0 mm 0.00 in0.0 mm 0.00 in0.0 mm
09:15 PM 50.4°F10.2°C 37.4°F3.0°C 61% Calm Calm 7.6 mph12.2 kmh 29.80 in1009.1 mb 0.00 in0.0 mm 0.00 in0.0 mm 0.00 in0.0 mm
09:30 PM 50.4°F10.2°C 37.4°F3.0°C 61% 4.7 mph WNW7.6 kmh WNW 6.4 mph10.3 kmh 29.80 in1009.1 mb 0.00 in0.0 mm 0.00 in0.0 mm 0.00 in0.0 mm
09:45 PM 49.8°F9.9°C 37.7°F3.2°C 63% 4.1 mph W6.6 kmh W 5.3 mph8.5 kmh 29.80 in1009.1 mb 0.00 in0.0 mm 0.00 in0.0 mm 0.00 in0.0 mm
10:00 PM 48.9°F9.4°C 37.3°F2.9°C 64% Calm Calm -- 29.80 in1009.1 mb 0.00 in0.0 mm 0.00 in0.0 mm 0.00 in0.0 mm
10:15 PM 49.5°F9.7°C 37.8°F3.2°C 64% Calm Calm 4.7 mph7.6 kmh 29.80 in1009.1 mb 0.00 in0.0 mm 0.00 in0.0 mm 0.00 in0.0 mm
10:30 PM 50.7°F10.4°C 36.0°F2.2°C 57% 2.9 mph NW4.7 kmh NW 6.4 mph10.3 kmh 29.80 in1009.1 mb 0.00 in0.0 mm 0.00 in0.0 mm 0.00 in0.0 mm
10:45 PM 51.1°F10.6°C 35.0°F1.7°C 54% 5.9 mph WNW9.5 kmh WNW 10.0 mph16.1 kmh 29.83 in1010.2 mb 0.00 in0.0 mm 0.00 in0.0 mm 0.00 in0.0 mm
11:00 PM 50.9°F10.5°C 34.8°F1.6°C 54% Calm Calm 6.4 mph10.3 kmh 29.83 in1010.2 mb 0.00 in0.0 mm 0.00 in0.0 mm 0.00 in0.0 mm
11:15 PM 51.1°F10.6°C 33.6°F0.9°C 51% 5.9 mph NNW9.5 kmh NNW 8.2 mph13.2 kmh 29.83 in1010.2 mb 0.00 in0.0 mm 0.00 in0.0 mm 0.00 in0.0 mm
11:30 PM 51.1°F10.6°C 31.5°F-0.3°C 47% 5.9 mph NW9.5 kmh NW 8.2 mph13.2 kmh 29.83 in1010.2 mb 0.00 in0.0 mm 0.00 in0.0 mm 0.00 in0.0 mm
11:45 PM 52.3°F11.3°C 26.1°F-3.3°C 36% 10.8 mph NW17.4 kmh NW 16.1 mph25.9 kmh 29.80 in1009.1 mb 0.00 in0.0 mm 0.00 in0.0 mm 0.00 in0.0 mm